createdAt,value
2023-02-16T00:00:45.987Z,4.51
2023-02-16T00:03:20.976Z,4.45
2023-02-16T00:05:55.357Z,4.44
2023-02-16T00:08:28.140Z,4.40
2023-02-16T00:11:19.200Z,4.41
2023-02-16T00:13:53.017Z,4.15
2023-02-16T00:16:26.140Z,4.21
2023-02-16T00:18:58.986Z,4.40
2023-02-16T00:21:33.134Z,4.18
2023-02-16T00:24:06.571Z,4.05
2023-02-16T00:26:40.905Z,4.17
2023-02-16T00:29:19.489Z,4.07
2023-02-16T00:31:53.113Z,4.12
2023-02-16T00:34:29.450Z,3.99
2023-02-16T00:37:05.459Z,3.90
2023-02-16T00:39:39.799Z,3.87
2023-02-16T00:42:19.432Z,3.95
2023-02-16T00:44:54.467Z,3.83
2023-02-16T00:47:31.232Z,3.80
2023-02-16T00:50:05.681Z,3.79
2023-02-16T00:52:43.041Z,3.86
2023-02-16T00:55:18.194Z,3.83
2023-02-16T00:57:54.649Z,3.86
2023-02-16T01:00:31.613Z,3.84
2023-02-16T01:03:08.314Z,3.80
2023-02-16T01:05:41.987Z,3.91
2023-02-16T01:08:35.268Z,3.97
2023-02-16T01:11:11.061Z,3.92
2023-02-16T01:13:48.874Z,3.80
2023-02-16T01:16:23.906Z,3.63
2023-02-16T01:18:56.647Z,3.71
2023-02-16T01:21:29.548Z,3.82
2023-02-16T01:24:03.884Z,3.67
2023-02-16T01:26:40.015Z,3.62
2023-02-16T01:29:15.796Z,3.57
2023-02-16T01:31:49.537Z,3.38
2023-02-16T01:34:22.550Z,3.38
2023-02-16T01:36:55.358Z,3.38
2023-02-16T01:39:29.627Z,3.30
2023-02-16T01:42:13.083Z,3.39
2023-02-16T01:44:49.405Z,3.32
2023-02-16T01:47:36.516Z,3.29
2023-02-16T01:50:20.751Z,3.33
2023-02-16T01:52:57.929Z,3.26
2023-02-16T01:55:37.749Z,3.30
2023-02-16T01:58:16.167Z,3.38
2023-02-16T02:01:22.518Z,3.34
2023-02-16T02:04:13.164Z,3.11
2023-02-16T02:06:46.303Z,3.37
2023-02-16T02:09:24.078Z,3.31
2023-02-16T02:12:04.892Z,3.38
2023-02-16T02:14:41.280Z,3.31
2023-02-16T02:17:17.904Z,3.16
2023-02-16T02:19:59.407Z,3.16
2023-02-16T02:23:21.952Z,2.98
2023-02-16T02:26:21.058Z,3.13
2023-02-16T02:29:07.707Z,3.19
2023-02-16T02:31:51.650Z,3.07
2023-02-16T02:34:36.236Z,3.21
2023-02-16T02:37:19.253Z,3.16
2023-02-16T02:39:59.868Z,3.08
2023-02-16T02:42:42.113Z,3.10
2023-02-16T02:45:22.362Z,3.06
2023-02-16T02:47:55.283Z,3.08
2023-02-16T02:51:07.469Z,2.99
2023-02-16T02:53:46.217Z,2.93
2023-02-16T02:56:37.051Z,2.92
2023-02-16T02:59:28.567Z,2.91
2023-02-16T03:02:03.835Z,2.99
2023-02-16T03:04:37.091Z,2.92
2023-02-16T03:07:11.089Z,2.84
2023-02-16T03:09:44.415Z,2.86
2023-02-16T03:12:34.840Z,2.87
2023-02-16T03:15:09.672Z,2.77
2023-02-16T03:18:01.420Z,2.80
2023-02-16T03:20:51.768Z,2.91
2023-02-16T03:23:41.957Z,2.90
2023-02-16T03:26:33.690Z,3.03
2023-02-16T03:29:22.330Z,3.03
2023-02-16T03:31:57.058Z,3.26
2023-02-16T03:34:32.927Z,3.07
2023-02-16T03:37:06.775Z,3.06
2023-02-16T03:39:53.872Z,3.27
2023-02-16T03:42:26.927Z,3.39
2023-02-16T03:44:59.769Z,3.48
2023-02-16T03:47:32.573Z,3.61
2023-02-16T03:50:08.231Z,3.74
2023-02-16T03:52:41.033Z,3.56
2023-02-16T03:55:14.910Z,3.63
2023-02-16T03:58:08.916Z,3.59
2023-02-16T04:00:42.005Z,3.68
2023-02-16T04:03:15.503Z,3.57
2023-02-16T04:05:49.826Z,3.58
2023-02-16T04:08:22.875Z,3.51
2023-02-16T04:10:57.373Z,3.50
2023-02-16T04:13:29.274Z,3.51
2023-02-16T04:16:02.060Z,3.50
2023-02-16T04:18:35.064Z,3.51
2023-02-16T04:21:09.290Z,3.48
2023-02-16T04:23:42.393Z,3.40
2023-02-16T04:26:15.429Z,3.39
2023-02-16T04:28:50.482Z,3.37
2023-02-16T04:31:23.323Z,3.55
2023-02-16T04:33:56.215Z,3.37
2023-02-16T04:36:31.527Z,3.45
2023-02-16T04:39:05.135Z,3.42
2023-02-16T04:41:38.024Z,3.42
2023-02-16T04:44:10.916Z,3.45
2023-02-16T04:46:43.789Z,3.47
2023-02-16T04:49:16.898Z,3.53
2023-02-16T04:51:51.449Z,3.68
2023-02-16T04:54:24.470Z,3.74
2023-02-16T04:56:57.296Z,3.66
2023-02-16T04:59:30.231Z,3.75
2023-02-16T05:02:03.166Z,3.84
2023-02-16T05:04:36.181Z,3.80
2023-02-16T05:07:10.625Z,3.86
2023-02-16T05:09:43.609Z,3.82
2023-02-16T05:12:33.877Z,3.79
2023-02-16T05:15:07.805Z,3.81
2023-02-16T05:17:40.954Z,3.84
2023-02-16T05:20:14.725Z,3.82
2023-02-16T05:22:49.378Z,3.74
2023-02-16T05:25:22.272Z,3.73
2023-02-16T05:27:55.200Z,3.75
2023-02-16T05:30:28.240Z,3.69
2023-02-16T05:33:01.110Z,3.76
2023-02-16T05:35:34.706Z,3.71
2023-02-16T05:38:08.974Z,3.69
2023-02-16T05:40:41.841Z,3.79
2023-02-16T05:43:14.721Z,3.64
2023-02-16T05:45:47.588Z,3.78
2023-02-16T05:48:20.450Z,3.90
2023-02-16T05:50:55.256Z,3.97
2023-02-16T05:53:29.536Z,3.96
2023-02-16T05:56:02.401Z,4.04
2023-02-16T05:58:35.758Z,4.17
2023-02-16T06:01:08.680Z,4.12
2023-02-16T06:03:41.662Z,4.12
2023-02-16T06:06:14.519Z,4.23
2023-02-16T06:08:48.815Z,4.30
2023-02-16T06:11:36.848Z,4.29
2023-02-16T06:14:11.548Z,4.20
2023-02-16T06:16:45.438Z,4.30
2023-02-16T06:19:19.974Z,4.22
2023-02-16T06:21:52.791Z,4.13
2023-02-16T06:24:26.986Z,4.17
2023-02-16T06:26:59.838Z,4.15
2023-02-16T06:29:32.946Z,4.12
2023-02-16T06:32:06.386Z,4.16
2023-02-16T06:34:39.282Z,4.16
2023-02-16T06:37:12.083Z,4.18
2023-02-16T06:39:46.202Z,4.29
2023-02-16T06:42:19.017Z,4.35
2023-02-16T06:44:51.776Z,4.39
2023-02-16T06:47:26.634Z,4.49
2023-02-16T06:49:59.426Z,4.55
2023-02-16T06:52:32.478Z,4.53
2023-02-16T06:55:07.511Z,4.52
2023-02-16T06:57:40.094Z,4.57
2023-02-16T07:00:14.175Z,4.66
2023-02-16T07:02:47.091Z,4.62
2023-02-16T07:05:19.914Z,4.65
2023-02-16T07:07:52.902Z,4.65
2023-02-16T07:10:34.663Z,4.75
2023-02-16T07:13:13.440Z,4.82
2023-02-16T07:15:46.650Z,4.82
2023-02-16T07:18:19.468Z,4.86
2023-02-16T07:20:52.296Z,4.88
2023-02-16T07:23:25.744Z,4.92
2023-02-16T07:26:00.615Z,4.91
2023-02-16T07:28:34.872Z,4.92
2023-02-16T07:31:09.449Z,4.78
2023-02-16T07:33:42.916Z,4.86
2023-02-16T07:36:15.806Z,4.88
2023-02-16T07:38:48.890Z,4.89
2023-02-16T07:41:23.375Z,4.87
2023-02-16T07:43:56.153Z,4.90
2023-02-16T07:46:30.487Z,4.92
2023-02-16T07:49:04.520Z,4.87
2023-02-16T07:51:37.335Z,4.89
2023-02-16T07:54:10.505Z,5.04
2023-02-16T07:56:44.752Z,5.09
2023-02-16T07:59:17.625Z,5.19
2023-02-16T08:01:50.636Z,5.18
2023-02-16T08:04:26.264Z,5.38
2023-02-16T08:07:00.218Z,5.46
2023-02-16T08:09:34.032Z,5.63
2023-02-16T08:12:11.146Z,5.76
2023-02-16T08:14:44.554Z,5.86
2023-02-16T08:17:17.345Z,6.02
2023-02-16T08:19:51.075Z,6.05
2023-02-16T08:22:23.819Z,6.13
2023-02-16T08:24:56.528Z,6.01
2023-02-16T08:27:31.408Z,6.16
2023-02-16T08:30:04.491Z,6.28
2023-02-16T08:35:52.339Z,6.44
2023-02-16T08:38:25.480Z,6.60
2023-02-16T08:40:59.482Z,6.68
2023-02-16T08:43:33.871Z,6.69
2023-02-16T08:46:09.558Z,6.76
2023-02-16T08:48:43.789Z,6.87
2023-02-16T08:51:19.252Z,6.97
2023-02-16T08:53:52.342Z,6.97
2023-02-16T08:56:25.903Z,6.95
2023-02-16T08:59:00.709Z,6.96
2023-02-16T09:01:33.601Z,7.00
2023-02-16T09:04:07.026Z,7.00
2023-02-16T09:06:41.343Z,7.12
2023-02-16T09:09:15.050Z,7.13
2023-02-16T09:11:48.464Z,7.21
2023-02-16T09:14:22.995Z,7.25
2023-02-16T09:16:55.964Z,7.34
2023-02-16T09:19:29.156Z,7.56
2023-02-16T09:22:03.167Z,7.65
2023-02-16T09:24:36.026Z,7.77
2023-02-16T09:27:09.314Z,7.87
2023-02-16T09:29:43.787Z,7.98
2023-02-16T09:32:17.168Z,8.12
2023-02-16T09:34:51.285Z,8.23
2023-02-16T09:37:24.578Z,8.30
2023-02-16T09:39:58.108Z,8.53
2023-02-16T09:42:42.283Z,8.76
2023-02-16T09:45:18.750Z,8.93
2023-02-16T09:47:54.266Z,9.12
2023-02-16T09:50:53.757Z,9.20
2023-02-16T09:53:25.548Z,9.26
2023-02-16T09:56:06.176Z,9.31
2023-02-16T09:58:46.549Z,9.29
2023-02-16T10:01:28.879Z,9.28
2023-02-16T10:04:17.004Z,9.16
2023-02-16T10:07:03.085Z,9.17
2023-02-16T10:09:36.951Z,9.12
2023-02-16T10:12:16.005Z,9.18
2023-02-16T10:14:52.346Z,9.10
2023-02-16T10:17:33.189Z,9.12
2023-02-16T10:20:13.044Z,9.07
2023-02-16T10:22:50.931Z,8.99
2023-02-16T10:25:30.306Z,8.95
2023-02-16T10:28:15.917Z,8.88
2023-02-16T10:30:54.612Z,8.92
2023-02-16T10:33:42.627Z,8.98
2023-02-16T10:36:24.991Z,9.01
2023-02-16T10:39:03.912Z,9.04
2023-02-16T10:41:42.393Z,9.00
2023-02-16T10:44:21.551Z,8.95
2023-02-16T10:46:58.387Z,8.98
2023-02-16T10:49:33.728Z,9.06
2023-02-16T10:52:10.520Z,9.10
2023-02-16T10:54:43.492Z,9.12
2023-02-16T11:00:27.581Z,9.23
2023-02-16T11:03:03.597Z,9.22
2023-02-16T11:05:40.423Z,9.31
2023-02-16T11:08:14.091Z,9.38
2023-02-16T11:10:50.756Z,9.45
2023-02-16T11:13:31.604Z,9.42
2023-02-16T11:16:11.150Z,9.52
2023-02-16T11:18:49.588Z,9.54
2023-02-16T11:21:44.222Z,9.67
2023-02-16T11:24:26.863Z,9.43
2023-02-16T11:27:06.175Z,9.57
2023-02-16T11:29:39.128Z,9.58
2023-02-16T11:32:14.231Z,9.68
2023-02-16T11:34:50.174Z,9.70
2023-02-16T11:37:27.558Z,9.78
2023-02-16T11:40:03.576Z,9.87
2023-02-16T11:42:42.471Z,9.60
2023-02-16T11:45:31.356Z,9.69
2023-02-16T11:48:08.169Z,9.28
2023-02-16T11:50:55.727Z,9.49
2023-02-16T11:53:32.688Z,9.62
2023-02-16T11:56:19.043Z,9.40
2023-02-16T11:59:08.349Z,9.46
2023-02-16T12:01:58.967Z,9.54
2023-02-16T12:04:48.904Z,9.45
2023-02-16T12:07:31.283Z,9.47
2023-02-16T12:10:10.109Z,9.52
2023-02-16T12:12:52.693Z,9.45
2023-02-16T12:15:31.565Z,9.32
2023-02-16T12:18:20.995Z,9.27
2023-02-16T12:24:02.048Z,9.24
2023-02-16T12:26:44.635Z,9.34
2023-02-16T12:29:33.689Z,9.37
2023-02-16T12:32:18.921Z,9.51
2023-02-16T12:35:07.213Z,9.34
2023-02-16T12:37:47.020Z,9.47
2023-02-16T12:40:31.180Z,9.43
2023-02-16T12:43:23.490Z,9.53
2023-02-16T12:45:59.558Z,9.74
2023-02-16T12:48:41.846Z,9.75
2023-02-16T12:51:19.293Z,9.85
2023-02-16T12:53:59.074Z,9.62
2023-02-16T12:56:40.165Z,9.50
2023-02-16T12:59:23.032Z,9.39
2023-02-16T13:01:59.626Z,9.49
2023-02-16T13:04:41.574Z,9.45
2023-02-16T13:07:22.672Z,9.37
2023-02-16T13:10:03.302Z,9.28
2023-02-16T13:12:40.663Z,9.19
2023-02-16T13:15:20.536Z,9.13
2023-02-16T13:17:58.256Z,8.95
2023-02-16T13:20:31.362Z,9.11
2023-02-16T13:23:42.638Z,9.09
2023-02-16T13:26:42.006Z,8.93
2023-02-16T13:29:41.268Z,8.91
2023-02-16T13:32:37.894Z,9.01
2023-02-16T13:35:23.968Z,9.10
2023-02-16T13:38:10.867Z,8.96
2023-02-16T13:41:06.536Z,8.92
2023-02-16T13:43:45.079Z,8.97
2023-02-16T13:46:23.635Z,8.80
2023-02-16T13:48:58.457Z,8.94
2023-02-16T13:51:41.804Z,8.94
2023-02-16T13:54:27.773Z,9.02
2023-02-16T13:57:04.098Z,8.97
2023-02-16T14:00:00.145Z,9.05
2023-02-16T14:02:55.749Z,9.16
2023-02-16T14:05:34.133Z,9.24
2023-02-16T14:08:29.518Z,9.43
2023-02-16T14:11:11.342Z,9.43
2023-02-16T14:13:51.658Z,9.32
2023-02-16T14:16:29.657Z,9.31
2023-02-16T14:19:07.365Z,9.39
2023-02-16T14:21:43.918Z,9.27
2023-02-16T14:24:30.045Z,9.44
2023-02-16T14:27:04.467Z,9.62
2023-02-16T14:29:41.791Z,9.77
2023-02-16T14:32:24.969Z,9.83
2023-02-16T14:35:04.801Z,10.09
2023-02-16T14:37:41.526Z,10.22
2023-02-16T14:40:21.476Z,10.25
2023-02-16T14:43:02.569Z,10.28
2023-02-16T14:45:54.770Z,10.25
2023-02-16T14:48:56.771Z,10.35
2023-02-16T14:51:47.555Z,10.55
2023-02-16T14:54:57.371Z,10.64
2023-02-16T14:57:34.583Z,10.93
2023-02-16T15:00:19.394Z,11.20
2023-02-16T15:02:58.034Z,11.04
2023-02-16T15:05:34.063Z,10.97
2023-02-16T15:08:12.906Z,10.91
2023-02-16T15:10:47.194Z,10.85
2023-02-16T15:13:21.282Z,11.03
2023-02-16T15:15:56.657Z,10.69
2023-02-16T15:18:35.088Z,10.85
2023-02-16T15:21:18.743Z,11.26
2023-02-16T15:23:54.670Z,11.42
2023-02-16T15:26:31.224Z,11.21
2023-02-16T15:29:21.187Z,11.12
2023-02-16T15:31:55.008Z,11.07
2023-02-16T15:34:33.170Z,11.33
2023-02-16T15:37:23.473Z,11.09
2023-02-16T15:40:23.184Z,10.85
2023-02-16T15:42:51.780Z,10.78
2023-02-16T15:45:35.124Z,11.35
2023-02-16T15:48:22.840Z,12.54
2023-02-16T15:50:58.260Z,13.51
2023-02-16T15:53:37.166Z,13.22
2023-02-16T15:56:30.334Z,13.00
2023-02-16T15:59:15.648Z,12.46
2023-02-16T16:01:49.064Z,12.31
2023-02-16T16:04:25.139Z,11.71
2023-02-16T16:06:59.958Z,11.22
2023-02-16T16:09:34.245Z,11.16
2023-02-16T16:12:11.915Z,11.04
2023-02-16T16:14:52.911Z,10.70
2023-02-16T16:17:29.616Z,10.67
2023-02-16T16:20:28.112Z,10.67
2023-02-16T16:23:04.448Z,10.41
2023-02-16T16:25:43.324Z,10.33
2023-02-16T16:28:35.000Z,10.20
2023-02-16T16:31:11.100Z,10.01
2023-02-16T16:33:55.103Z,10.14
2023-02-16T16:36:33.869Z,10.14
2023-02-16T16:39:22.454Z,9.98
2023-02-16T16:42:18.883Z,9.98
2023-02-16T16:44:59.071Z,9.90
2023-02-16T16:47:36.368Z,9.91
2023-02-16T16:50:32.467Z,9.84
2023-02-16T16:53:43.886Z,9.81
2023-02-16T16:56:17.277Z,9.83
2023-02-16T16:58:51.571Z,9.80
2023-02-16T17:01:26.044Z,9.71
2023-02-16T17:04:01.045Z,9.75
2023-02-16T17:06:33.906Z,9.75
2023-02-16T17:09:06.636Z,9.73
2023-02-16T17:11:40.557Z,9.68
2023-02-16T17:14:17.924Z,9.67
2023-02-16T17:16:51.932Z,9.62
2023-02-16T17:19:29.247Z,9.60
2023-02-16T17:22:02.229Z,9.58
2023-02-16T17:24:35.150Z,9.62
2023-02-16T17:27:08.735Z,9.66
2023-02-16T17:29:42.892Z,9.62
2023-02-16T17:35:25.964Z,9.67
2023-02-16T17:37:58.984Z,9.67
2023-02-16T17:40:32.070Z,9.74
2023-02-16T17:43:12.285Z,9.79
2023-02-16T17:45:47.548Z,9.78
2023-02-16T17:48:31.311Z,9.86
2023-02-16T17:51:06.533Z,9.85
2023-02-16T17:53:40.722Z,9.89
2023-02-16T17:56:16.192Z,9.88
2023-02-16T17:58:49.032Z,9.96
2023-02-16T18:01:22.591Z,9.90
2023-02-16T18:03:55.575Z,10.01
2023-02-16T18:06:30.554Z,9.94
2023-02-16T18:09:03.278Z,10.10
2023-02-16T18:11:36.227Z,10.25
2023-02-16T18:14:10.184Z,10.15
2023-02-16T18:16:54.150Z,10.01
2023-02-16T18:19:27.376Z,10.18
2023-02-16T18:22:02.148Z,10.14
2023-02-16T18:24:34.911Z,10.19
2023-02-16T18:27:07.742Z,10.19
2023-02-16T18:29:40.583Z,10.18
2023-02-16T18:32:13.385Z,10.34
2023-02-16T18:34:46.255Z,10.40
2023-02-16T18:37:20.771Z,10.33
2023-02-16T18:39:53.536Z,10.37
2023-02-16T18:42:29.105Z,10.40
2023-02-16T18:45:02.433Z,10.38
2023-02-16T18:47:36.586Z,10.35
2023-02-16T18:50:11.781Z,10.52
2023-02-16T18:52:46.109Z,10.55
2023-02-16T18:55:20.031Z,10.48
2023-02-16T18:57:53.196Z,10.58
2023-02-16T19:00:26.410Z,10.48
2023-02-16T19:02:59.727Z,10.49
2023-02-16T19:05:33.267Z,10.35
2023-02-16T19:08:07.814Z,10.52
2023-02-16T19:10:40.754Z,10.46
2023-02-16T19:13:13.655Z,10.42
2023-02-16T19:15:46.596Z,10.34
2023-02-16T19:18:19.691Z,10.25
2023-02-16T19:20:52.632Z,10.13
2023-02-16T19:23:28.176Z,10.16
2023-02-16T19:26:06.431Z,10.00
2023-02-16T19:28:40.317Z,9.70
2023-02-16T19:31:19.164Z,9.83
2023-02-16T19:33:52.459Z,9.76
2023-02-16T19:36:26.126Z,9.71
2023-02-16T19:39:00.318Z,9.61
2023-02-16T19:41:35.384Z,9.53
2023-02-16T19:44:08.468Z,9.43
2023-02-16T19:46:41.565Z,9.41
2023-02-16T19:49:15.618Z,9.34
2023-02-16T19:51:48.510Z,9.30
2023-02-16T19:54:25.102Z,9.27
2023-02-16T19:56:57.999Z,9.25
2023-02-16T19:59:31.378Z,9.20
2023-02-16T20:02:04.142Z,9.21
2023-02-16T20:04:37.069Z,9.23
2023-02-16T20:07:10.019Z,9.25
2023-02-16T20:09:44.098Z,9.26
2023-02-16T20:12:17.533Z,9.23
2023-02-16T20:14:50.472Z,9.24
2023-02-16T20:17:23.311Z,9.15
2023-02-16T20:19:56.198Z,9.27
2023-02-16T20:22:29.075Z,9.27
2023-02-16T20:25:03.323Z,9.33
2023-02-16T20:27:36.274Z,9.37
2023-02-16T20:30:12.329Z,9.37
2023-02-16T20:32:47.009Z,9.43
2023-02-16T20:35:19.911Z,9.47
2023-02-16T20:37:53.770Z,9.45
2023-02-16T20:40:27.854Z,9.47
2023-02-16T20:43:00.901Z,9.52
2023-02-16T20:45:35.106Z,9.49
2023-02-16T20:48:08.391Z,9.47
2023-02-16T20:50:41.314Z,9.43
2023-02-16T20:53:14.136Z,9.37
2023-02-16T20:55:48.410Z,9.49
2023-02-16T20:58:21.493Z,9.46
2023-02-16T21:00:54.388Z,9.54
2023-02-16T21:03:27.776Z,9.56
2023-02-16T21:06:00.527Z,9.55
2023-02-16T21:08:34.863Z,9.50
2023-02-16T21:11:09.136Z,9.44
2023-02-16T21:13:42.771Z,9.31
2023-02-16T21:16:16.223Z,9.32
2023-02-16T21:18:49.122Z,9.28
2023-02-16T21:21:22.681Z,9.19
2023-02-16T21:23:56.225Z,9.12
2023-02-16T21:26:30.638Z,9.13
2023-02-16T21:29:03.461Z,9.05
2023-02-16T21:31:36.313Z,9.04
2023-02-16T21:34:09.170Z,8.95
2023-02-16T21:36:42.114Z,8.98
2023-02-16T21:39:14.930Z,8.84
2023-02-16T21:41:48.248Z,8.92
2023-02-16T21:44:20.967Z,8.91
2023-02-16T21:46:53.736Z,8.89
2023-02-16T21:49:25.515Z,8.90
2023-02-16T21:51:58.244Z,8.89
2023-02-16T21:54:44.968Z,8.91
2023-02-16T21:57:19.042Z,8.93
2023-02-16T21:59:51.883Z,8.82
2023-02-16T22:02:24.577Z,8.90
2023-02-16T22:04:57.317Z,8.89
2023-02-16T22:07:30.070Z,8.89
2023-02-16T22:10:02.926Z,8.88
2023-02-16T22:12:37.041Z,8.87
2023-02-16T22:15:10.109Z,8.88
2023-02-16T22:17:42.966Z,8.90
2023-02-16T22:20:15.864Z,8.87
2023-02-16T22:22:48.652Z,8.86
2023-02-16T22:25:22.977Z,8.84
2023-02-16T22:27:57.970Z,8.87
2023-02-16T22:30:30.606Z,8.89
2023-02-16T22:33:03.510Z,8.87
2023-02-16T22:35:36.331Z,8.96
2023-02-16T22:38:09.056Z,8.94
2023-02-16T22:40:41.834Z,9.03
2023-02-16T22:43:15.948Z,9.16
2023-02-16T22:45:48.771Z,9.19
2023-02-16T22:48:21.580Z,9.21
2023-02-16T22:51:01.419Z,9.24
2023-02-16T22:53:34.338Z,9.23
2023-02-16T22:56:15.577Z,9.19
2023-02-16T22:58:49.811Z,9.34
2023-02-16T23:01:23.457Z,9.40
2023-02-16T23:03:58.047Z,9.40
2023-02-16T23:06:35.762Z,9.42
2023-02-16T23:09:13.312Z,9.40
2023-02-16T23:11:46.485Z,9.32
2023-02-16T23:14:20.933Z,9.46
2023-02-16T23:16:54.359Z,9.45
2023-02-16T23:19:28.182Z,9.40
2023-02-16T23:22:01.018Z,9.45
2023-02-16T23:24:34.147Z,9.40
2023-02-16T23:27:06.912Z,9.42
2023-02-16T23:29:41.020Z,9.45
2023-02-16T23:32:13.781Z,9.47
2023-02-16T23:34:46.531Z,9.57
2023-02-16T23:37:19.249Z,9.50
2023-02-16T23:39:51.943Z,9.46
2023-02-16T23:42:24.676Z,9.51
2023-02-16T23:44:58.886Z,9.52
2023-02-16T23:47:31.707Z,9.55
2023-02-16T23:50:04.463Z,9.61
2023-02-16T23:52:37.268Z,9.55
2023-02-16T23:55:10.074Z,9.54
2023-02-16T23:57:43.106Z,9.45
